sensor_id;sensor_type;location;lat;lon;timestamp;pressure;altitude;pressure_sealevel;temperature;humidity
71392;BME280;59205;50.610;12.638;2022-12-18T00:02:04;96804.81;;;-10.08;98.72
71392;BME280;59205;50.610;12.638;2022-12-18T00:04:30;96801.34;;;-10.17;98.37
71392;BME280;59205;50.610;12.638;2022-12-18T00:06:56;96802.88;;;-10.16;98.93
71392;BME280;59205;50.610;12.638;2022-12-18T00:09:21;96803.25;;;-10.09;98.53
71392;BME280;59205;50.610;12.638;2022-12-18T00:11:47;96805.75;;;-10.04;98.63
71392;BME280;59205;50.610;12.638;2022-12-18T00:14:13;96800.59;;;-10.18;98.56
71392;BME280;59205;50.610;12.638;2022-12-18T00:16:40;96809.25;;;-10.09;98.51
71392;BME280;59205;50.610;12.638;2022-12-18T00:19:10;96805.16;;;-10.23;98.57
71392;BME280;59205;50.610;12.638;2022-12-18T00:21:35;96807.09;;;-10.29;98.63
71392;BME280;59205;50.610;12.638;2022-12-18T00:24:01;96812.66;;;-10.30;98.27
71392;BME280;59205;50.610;12.638;2022-12-18T00:26:31;96808.19;;;-10.30;98.27
71392;BME280;59205;50.610;12.638;2022-12-18T00:29:02;96808.13;;;-10.38;98.21
71392;BME280;59205;50.610;12.638;2022-12-18T00:31:27;96809.19;;;-10.39;98.20
71392;BME280;59205;50.610;12.638;2022-12-18T00:33:54;96804.34;;;-10.46;98.70
71392;BME280;59205;50.610;12.638;2022-12-18T00:36:23;96812.91;;;-10.54;98.69
71392;BME280;59205;50.610;12.638;2022-12-18T00:38:49;96823.66;;;-10.42;98.76
71392;BME280;59205;50.610;12.638;2022-12-18T00:41:17;96826.56;;;-10.43;99.57
71392;BME280;59205;50.610;12.638;2022-12-18T00:44:03;96820.66;;;-10.49;99.33
71392;BME280;59205;50.610;12.638;2022-12-18T00:46:29;96829.19;;;-10.43;99.24
71392;BME280;59205;50.610;12.638;2022-12-18T00:48:54;96823.41;;;-10.32;99.03
71392;BME280;59205;50.610;12.638;2022-12-18T00:51:20;96819.38;;;-10.38;99.01
71392;BME280;59205;50.610;12.638;2022-12-18T00:53:45;96826.44;;;-10.38;99.33
71392;BME280;59205;50.610;12.638;2022-12-18T00:56:11;96826.44;;;-10.38;99.41
71392;BME280;59205;50.610;12.638;2022-12-18T00:58:36;96820.59;;;-10.35;99.05
71392;BME280;59205;50.610;12.638;2022-12-18T01:01:04;96829.25;;;-10.35;98.67
71392;BME280;59205;50.610;12.638;2022-12-18T01:03:29;96831.03;;;-10.57;98.71
71392;BME280;59205;50.610;12.638;2022-12-18T01:05:56;96823.16;;;-10.44;98.71
71392;BME280;59205;50.610;12.638;2022-12-18T01:08:21;96817.28;;;-10.49;98.55
71392;BME280;59205;50.610;12.638;2022-12-18T01:10:47;96826.28;;;-10.42;98.63
71392;BME280;59205;50.610;12.638;2022-12-18T01:13:12;96824.75;;;-10.56;98.31
71392;BME280;59205;50.610;12.638;2022-12-18T01:15:38;96830.56;;;-10.59;98.19
71392;BME280;59205;50.610;12.638;2022-12-18T01:18:03;96826.50;;;-10.65;98.23
71392;BME280;59205;50.610;12.638;2022-12-18T01:20:29;96829.63;;;-10.63;98.34
71392;BME280;59205;50.610;12.638;2022-12-18T01:22:54;96834.38;;;-10.65;98.12
71392;BME280;59205;50.610;12.638;2022-12-18T01:25:20;96836.13;;;-10.74;98.35
71392;BME280;59205;50.610;12.638;2022-12-18T01:27:45;96835.16;;;-10.78;98.54
71392;BME280;59205;50.610;12.638;2022-12-18T01:30:11;96831.75;;;-10.65;98.18
71392;BME280;59205;50.610;12.638;2022-12-18T01:32:36;96827.47;;;-10.61;98.24
71392;BME280;59205;50.610;12.638;2022-12-18T01:35:02;96844.91;;;-10.57;98.59
71392;BME280;59205;50.610;12.638;2022-12-18T01:37:28;96845.75;;;-10.48;98.27
71392;BME280;59205;50.610;12.638;2022-12-18T01:39:53;96841.38;;;-10.39;98.59
71392;BME280;59205;50.610;12.638;2022-12-18T01:42:20;96849.44;;;-10.49;98.34
71392;BME280;59205;50.610;12.638;2022-12-18T01:45:04;96845.09;;;-10.53;98.59
71392;BME280;59205;50.610;12.638;2022-12-18T01:47:47;96844.53;;;-10.50;98.29
71392;BME280;59205;50.610;12.638;2022-12-18T01:55:37;96858.41;;;-10.77;97.92
71392;BME280;59205;50.610;12.638;2022-12-18T01:58:03;96854.06;;;-10.81;98.11
71392;BME280;59205;50.610;12.638;2022-12-18T02:00:29;96849.31;;;-10.79;98.62
71392;BME280;59205;50.610;12.638;2022-12-18T02:02:55;96853.38;;;-10.73;98.16
71392;BME280;59205;50.610;12.638;2022-12-18T02:06:13;96854.72;;;-10.62;98.08
71392;BME280;59205;50.610;12.638;2022-12-18T02:11:01;96864.31;;;-10.58;98.04
71392;BME280;59205;50.610;12.638;2022-12-18T02:13:55;96866.03;;;-10.53;98.15
71392;BME280;59205;50.610;12.638;2022-12-18T02:17:01;96880.41;;;-10.64;97.98
71392;BME280;59205;50.610;12.638;2022-12-18T02:27:30;96875.13;;;-10.37;98.62
71392;BME280;59205;50.610;12.638;2022-12-18T02:29:59;96879.59;;;-10.38;98.54
71392;BME280;59205;50.610;12.638;2022-12-18T02:32:31;96869.28;;;-10.21;98.53
71392;BME280;59205;50.610;12.638;2022-12-18T02:34:59;96874.31;;;-10.24;98.51
71392;BME280;59205;50.610;12.638;2022-12-18T02:37:27;96873.56;;;-10.38;98.33
71392;BME280;59205;50.610;12.638;2022-12-18T02:39:55;96871.34;;;-10.31;98.44
71392;BME280;59205;50.610;12.638;2022-12-18T02:42:22;96859.59;;;-10.34;98.50
71392;BME280;59205;50.610;12.638;2022-12-18T02:44:50;96864.06;;;-10.12;99.20
71392;BME280;59205;50.610;12.638;2022-12-18T02:47:22;96861.53;;;-10.39;98.55
71392;BME280;59205;50.610;12.638;2022-12-18T02:52:35;96857.81;;;-10.60;98.76
71392;BME280;59205;50.610;12.638;2022-12-18T02:57:42;96855.91;;;-10.33;98.56
71392;BME280;59205;50.610;12.638;2022-12-18T03:00:21;96847.38;;;-10.38;98.69
71392;BME280;59205;50.610;12.638;2022-12-18T03:02:59;96842.66;;;-10.50;98.91
71392;BME280;59205;50.610;12.638;2022-12-18T03:05:38;96850.44;;;-10.58;98.91
71392;BME280;59205;50.610;12.638;2022-12-18T03:08:21;96848.41;;;-10.61;98.63
71392;BME280;59205;50.610;12.638;2022-12-18T03:11:04;96847.34;;;-10.60;98.42
71392;BME280;59205;50.610;12.638;2022-12-18T03:13:50;96847.81;;;-10.58;98.49
71392;BME280;59205;50.610;12.638;2022-12-18T03:16:24;96847.09;;;-10.72;98.48
71392;BME280;59205;50.610;12.638;2022-12-18T03:18:55;96854.94;;;-10.72;98.38
71392;BME280;59205;50.610;12.638;2022-12-18T03:21:28;96853.38;;;-10.73;98.32
71392;BME280;59205;50.610;12.638;2022-12-18T03:23:55;96851.41;;;-10.68;98.40
71392;BME280;59205;50.610;12.638;2022-12-18T03:26:24;96857.34;;;-10.76;98.15
71392;BME280;59205;50.610;12.638;2022-12-18T03:28:57;96854.66;;;-10.84;98.07
71392;BME280;59205;50.610;12.638;2022-12-18T03:31:26;96847.66;;;-10.75;98.16
71392;BME280;59205;50.610;12.638;2022-12-18T03:33:54;96851.56;;;-10.86;98.74
71392;BME280;59205;50.610;12.638;2022-12-18T03:36:20;96849.53;;;-10.89;98.80
71392;BME280;59205;50.610;12.638;2022-12-18T03:38:46;96850.56;;;-11.17;99.04
71392;BME280;59205;50.610;12.638;2022-12-18T03:41:28;96852.91;;;-10.89;99.40
71392;BME280;59205;50.610;12.638;2022-12-18T03:49:14;96859.50;;;-11.05;98.90
71392;BME280;59205;50.610;12.638;2022-12-18T03:54:11;96865.72;;;-11.01;98.89
71392;BME280;59205;50.610;12.638;2022-12-18T03:56:40;96869.41;;;-11.02;98.69
71392;BME280;59205;50.610;12.638;2022-12-18T03:59:08;96857.97;;;-11.06;98.75
71392;BME280;59205;50.610;12.638;2022-12-18T04:01:39;96860.75;;;-11.02;98.62
71392;BME280;59205;50.610;12.638;2022-12-18T04:04:08;96865.72;;;-11.01;98.95
71392;BME280;59205;50.610;12.638;2022-12-18T04:06:36;96862.03;;;-11.00;98.55
71392;BME280;59205;50.610;12.638;2022-12-18T04:09:03;96860.28;;;-11.04;97.77
71392;BME280;59205;50.610;12.638;2022-12-18T04:11:30;96864.06;;;-11.24;97.66
71392;BME280;59205;50.610;12.638;2022-12-18T04:13:57;96868.38;;;-11.33;97.63
71392;BME280;59205;50.610;12.638;2022-12-18T04:16:26;96867.69;;;-11.38;97.76
71392;BME280;59205;50.610;12.638;2022-12-18T04:18:52;96874.78;;;-11.25;97.66
71392;BME280;59205;50.610;12.638;2022-12-18T04:21:17;96882.16;;;-11.27;97.83
71392;BME280;59205;50.610;12.638;2022-12-18T04:23:43;96874.09;;;-11.17;97.73
71392;BME280;59205;50.610;12.638;2022-12-18T04:26:08;96882.16;;;-11.14;97.61
71392;BME280;59205;50.610;12.638;2022-12-18T04:28:34;96879.44;;;-11.22;98.04
71392;BME280;59205;50.610;12.638;2022-12-18T04:30:59;96884.56;;;-11.17;97.99
71392;BME280;59205;50.610;12.638;2022-12-18T04:33:24;96891.19;;;-11.06;97.72
71392;BME280;59205;50.610;12.638;2022-12-18T04:35:50;96890.69;;;-11.08;97.75
71392;BME280;59205;50.610;12.638;2022-12-18T04:38:16;96884.69;;;-11.09;97.87
71392;BME280;59205;50.610;12.638;2022-12-18T04:40:41;96882.94;;;-11.13;97.60
71392;BME280;59205;50.610;12.638;2022-12-18T04:43:07;96882.94;;;-11.13;98.01
71392;BME280;59205;50.610;12.638;2022-12-18T04:45:33;96879.28;;;-11.12;98.13
71392;BME280;59205;50.610;12.638;2022-12-18T04:47:59;96875.88;;;-11.13;98.34
71392;BME280;59205;50.610;12.638;2022-12-18T04:50:25;96869.94;;;-11.18;98.30
71392;BME280;59205;50.610;12.638;2022-12-18T04:52:50;96875.19;;;-11.18;98.20
71392;BME280;59205;50.610;12.638;2022-12-18T04:55:16;96883.44;;;-11.11;98.02
71392;BME280;59205;50.610;12.638;2022-12-18T04:57:41;96871.50;;;-11.17;97.73
71392;BME280;59205;50.610;12.638;2022-12-18T05:00:07;96875.00;;;-11.08;98.13
71392;BME280;59205;50.610;12.638;2022-12-18T05:02:33;96867.53;;;-11.28;97.87
71392;BME280;59205;50.610;12.638;2022-12-18T05:04:58;96872.28;;;-11.17;98.37
71392;BME280;59205;50.610;12.638;2022-12-18T05:07:24;96870.47;;;-11.16;98.02
71392;BME280;59205;50.610;12.638;2022-12-18T05:09:50;96870.53;;;-11.21;98.27
71392;BME280;59205;50.610;12.638;2022-12-18T05:12:15;96872.56;;;-11.18;98.25
71392;BME280;59205;50.610;12.638;2022-12-18T05:14:41;96878.69;;;-10.96;98.60
71392;BME280;59205;50.610;12.638;2022-12-18T05:17:06;96875.97;;;-11.18;98.15
71392;BME280;59205;50.610;12.638;2022-12-18T05:19:31;96892.13;;;-11.16;97.72
71392;BME280;59205;50.610;12.638;2022-12-18T05:21:57;96891.97;;;-11.06;97.81
71392;BME280;59205;50.610;12.638;2022-12-18T05:24:23;96894.84;;;-11.21;97.02
71392;BME280;59205;50.610;12.638;2022-12-18T05:26:48;96886.41;;;-11.31;97.61
71392;BME280;59205;50.610;12.638;2022-12-18T05:29:14;96884.28;;;-11.29;97.49
71392;BME280;59205;50.610;12.638;2022-12-18T05:31:39;96892.47;;;-11.49;97.74
71392;BME280;59205;50.610;12.638;2022-12-18T05:34:05;96890.66;;;-11.48;97.71
71392;BME280;59205;50.610;12.638;2022-12-18T05:36:31;96890.94;;;-11.37;97.73
71392;BME280;59205;50.610;12.638;2022-12-18T05:38:56;96878.47;;;-11.26;98.32
71392;BME280;59205;50.610;12.638;2022-12-18T05:41:22;96890.94;;;-11.37;97.88
71392;BME280;59205;50.610;12.638;2022-12-18T05:43:47;96890.75;;;-11.40;97.61
71392;BME280;59205;50.610;12.638;2022-12-18T05:46:15;96887.25;;;-11.49;97.77
71392;BME280;59205;50.610;12.638;2022-12-18T05:48:43;96890.44;;;-11.65;97.53
71392;BME280;59205;50.610;12.638;2022-12-18T05:51:15;96883.66;;;-11.53;97.32
71392;BME280;59205;50.610;12.638;2022-12-18T05:53:41;96880.13;;;-11.30;97.98
71392;BME280;59205;50.610;12.638;2022-12-18T05:56:10;96884.75;;;-11.27;98.10
71392;BME280;59205;50.610;12.638;2022-12-18T05:58:36;96887.00;;;-11.34;97.56
71392;BME280;59205;50.610;12.638;2022-12-18T06:01:10;96897.25;;;-11.38;97.41
71392;BME280;59205;50.610;12.638;2022-12-18T06:03:36;96902.25;;;-11.41;97.94
71392;BME280;59205;50.610;12.638;2022-12-18T06:06:01;96910.69;;;-11.44;97.66
71392;BME280;59205;50.610;12.638;2022-12-18T06:08:27;96896.06;;;-11.45;97.63
71392;BME280;59205;50.610;12.638;2022-12-18T06:10:52;96905.56;;;-11.36;97.81
71392;BME280;59205;50.610;12.638;2022-12-18T06:13:19;96916.81;;;-11.35;97.44
71392;BME280;59205;50.610;12.638;2022-12-18T06:15:45;96915.16;;;-11.45;97.38
71392;BME280;59205;50.610;12.638;2022-12-18T06:18:11;96911.16;;;-11.42;97.46
71392;BME280;59205;50.610;12.638;2022-12-18T06:20:37;96907.97;;;-11.39;97.42
71392;BME280;59205;50.610;12.638;2022-12-18T06:23:05;96908.06;;;-11.44;97.65
71392;BME280;59205;50.610;12.638;2022-12-18T06:25:30;96910.78;;;-11.49;97.75
71392;BME280;59205;50.610;12.638;2022-12-18T06:27:56;96911.75;;;-11.58;97.42
71392;BME280;59205;50.610;12.638;2022-12-18T06:30:22;96916.69;;;-11.44;97.37
71392;BME280;59205;50.610;12.638;2022-12-18T06:32:48;96917.75;;;-11.45;97.35
71392;BME280;59205;50.610;12.638;2022-12-18T06:35:14;96922.00;;;-11.48;97.76
71392;BME280;59205;50.610;12.638;2022-12-18T06:37:40;96919.47;;;-11.53;97.57
71392;BME280;59205;50.610;12.638;2022-12-18T06:40:06;96911.94;;;-11.55;98.08
71392;BME280;59205;50.610;12.638;2022-12-18T06:42:32;96911.25;;;-11.47;98.06
71392;BME280;59205;50.610;12.638;2022-12-18T06:44:57;96920.16;;;-11.48;97.77
71392;BME280;59205;50.610;12.638;2022-12-18T06:47:23;96923.25;;;-11.46;97.62
71392;BME280;59205;50.610;12.638;2022-12-18T06:49:48;96915.50;;;-10.79;100.00
71392;BME280;59205;50.610;12.638;2022-12-18T06:52:14;96923.31;;;-9.81;100.00
71392;BME280;59205;50.610;12.638;2022-12-18T06:54:39;96926.06;;;-9.64;100.00
71392;BME280;59205;50.610;12.638;2022-12-18T06:57:05;96923.53;;;-10.48;100.00
71392;BME280;59205;50.610;12.638;2022-12-18T06:59:30;96924.91;;;-10.15;100.00
71392;BME280;59205;50.610;12.638;2022-12-18T07:01:56;96927.41;;;-10.10;100.00
71392;BME280;59205;50.610;12.638;2022-12-18T07:04:21;96919.16;;;-9.60;100.00
71392;BME280;59205;50.610;12.638;2022-12-18T07:06:47;96924.91;;;-9.93;100.00
71392;BME280;59205;50.610;12.638;2022-12-18T07:09:12;96922.94;;;-10.99;100.00
71392;BME280;59205;50.610;12.638;2022-12-18T07:11:38;96911.22;;;-11.15;99.98
71392;BME280;59205;50.610;12.638;2022-12-18T07:14:03;96916.16;;;-11.14;98.99
71392;BME280;59205;50.610;12.638;2022-12-18T07:16:29;96916.84;;;-11.22;97.82
71392;BME280;59205;50.610;12.638;2022-12-18T07:18:55;96913.28;;;-10.85;96.71
71392;BME280;59205;50.610;12.638;2022-12-18T07:21:23;96920.91;;;-10.89;95.68
71392;BME280;59205;50.610;12.638;2022-12-18T07:23:48;96917.72;;;-10.99;96.34
71392;BME280;59205;50.610;12.638;2022-12-18T07:26:17;96919.34;;;-11.03;96.43
71392;BME280;59205;50.610;12.638;2022-12-18T07:28:43;96930.19;;;-11.10;96.26
71392;BME280;59205;50.610;12.638;2022-12-18T07:31:16;96927.97;;;-11.16;96.08
71392;BME280;59205;50.610;12.638;2022-12-18T07:33:43;96930.03;;;-11.13;96.08
71392;BME280;59205;50.610;12.638;2022-12-18T07:36:10;96939.22;;;-11.02;95.41
71392;BME280;59205;50.610;12.638;2022-12-18T07:38:36;96933.59;;;-11.09;94.96
71392;BME280;59205;50.610;12.638;2022-12-18T07:41:09;96933.88;;;-10.97;95.02
71392;BME280;59205;50.610;12.638;2022-12-18T07:43:37;96934.78;;;-10.88;95.11
71392;BME280;59205;50.610;12.638;2022-12-18T07:46:03;96937.59;;;-10.71;95.18
71392;BME280;59205;50.610;12.638;2022-12-18T07:48:29;96946.78;;;-10.60;94.88
71392;BME280;59205;50.610;12.638;2022-12-18T07:50:59;96943.41;;;-10.47;95.18
71392;BME280;59205;50.610;12.638;2022-12-18T07:53:25;96941.47;;;-10.42;95.05
71392;BME280;59205;50.610;12.638;2022-12-18T07:55:58;96940.16;;;-9.95;95.40
71392;BME280;59205;50.610;12.638;2022-12-18T07:58:24;96931.97;;;-10.02;95.32
71392;BME280;59205;50.610;12.638;2022-12-18T08:00:50;96941.03;;;-10.00;95.05
71392;BME280;59205;50.610;12.638;2022-12-18T08:03:15;96938.41;;;-9.87;95.75
71392;BME280;59205;50.610;12.638;2022-12-18T08:05:41;96942.66;;;-9.77;95.58
71392;BME280;59205;50.610;12.638;2022-12-18T08:08:06;96939.16;;;-9.86;95.58
71392;BME280;59205;50.610;12.638;2022-12-18T08:10:32;96945.81;;;-9.67;95.61
71392;BME280;59205;50.610;12.638;2022-12-18T08:12:57;96945.44;;;-9.74;94.84
71392;BME280;59205;50.610;12.638;2022-12-18T08:15:23;96938.44;;;-9.65;94.66
71392;BME280;59205;50.610;12.638;2022-12-18T08:17:50;96941.41;;;-9.58;95.16
71392;BME280;59205;50.610;12.638;2022-12-18T08:20:15;96947.72;;;-9.37;94.77
71392;BME280;59205;50.610;12.638;2022-12-18T08:22:44;96957.19;;;-8.97;95.09
71392;BME280;59205;50.610;12.638;2022-12-18T08:25:09;96957.44;;;-8.76;94.42
71392;BME280;59205;50.610;12.638;2022-12-18T08:27:36;96959.63;;;-8.70;94.04
71392;BME280;59205;50.610;12.638;2022-12-18T08:30:02;96958.78;;;-8.57;93.90
71392;BME280;59205;50.610;12.638;2022-12-18T08:32:28;96964.53;;;-8.46;93.40
71392;BME280;59205;50.610;12.638;2022-12-18T08:34:54;96964.88;;;-8.31;93.07
71392;BME280;59205;50.610;12.638;2022-12-18T08:37:20;96974.00;;;-8.20;93.15
71392;BME280;59205;50.610;12.638;2022-12-18T08:39:46;96976.66;;;-8.03;92.35
71392;BME280;59205;50.610;12.638;2022-12-18T08:42:12;96983.59;;;-8.16;92.12
71392;BME280;59205;50.610;12.638;2022-12-18T08:44:56;96981.75;;;-7.98;92.44
71392;BME280;59205;50.610;12.638;2022-12-18T08:47:22;96980.22;;;-8.08;93.30
71392;BME280;59205;50.610;12.638;2022-12-18T08:49:47;96971.53;;;-8.17;93.16
71392;BME280;59205;50.610;12.638;2022-12-18T08:52:13;96974.00;;;-8.12;94.17
71392;BME280;59205;50.610;12.638;2022-12-18T08:54:38;96980.03;;;-8.11;93.84
71392;BME280;59205;50.610;12.638;2022-12-18T08:57:04;96977.38;;;-8.36;93.68
71392;BME280;59205;50.610;12.638;2022-12-18T08:59:29;96981.91;;;-8.28;94.50
71392;BME280;59205;50.610;12.638;2022-12-18T09:01:55;96983.28;;;-8.14;94.58
71392;BME280;59205;50.610;12.638;2022-12-18T09:04:21;96980.69;;;-7.97;94.49
71392;BME280;59205;50.610;12.638;2022-12-18T09:06:47;96976.25;;;-7.71;94.49
71392;BME280;59205;50.610;12.638;2022-12-18T09:09:12;96976.84;;;-7.23;93.44
71392;BME280;59205;50.610;12.638;2022-12-18T09:11:38;96976.38;;;-7.17;91.69
71392;BME280;59205;50.610;12.638;2022-12-18T09:14:04;96983.31;;;-7.04;91.96
71392;BME280;59205;50.610;12.638;2022-12-18T09:16:29;96987.63;;;-6.82;91.36
71392;BME280;59205;50.610;12.638;2022-12-18T09:18:55;96981.25;;;-6.73;89.71
71392;BME280;59205;50.610;12.638;2022-12-18T09:21:26;96976.84;;;-6.52;89.27
71392;BME280;59205;50.610;12.638;2022-12-18T09:23:52;96982.03;;;-6.35;87.97
71392;BME280;59205;50.610;12.638;2022-12-18T09:26:19;96982.00;;;-6.27;86.17
71392;BME280;59205;50.610;12.638;2022-12-18T09:28:45;96984.22;;;-6.08;85.84
71392;BME280;59205;50.610;12.638;2022-12-18T09:31:12;96984.22;;;-6.08;85.25
71392;BME280;59205;50.610;12.638;2022-12-18T09:33:38;96977.81;;;-5.99;85.17
71392;BME280;59205;50.610;12.638;2022-12-18T09:36:05;96973.44;;;-5.95;84.13
71392;BME280;59205;50.610;12.638;2022-12-18T09:38:32;96968.31;;;-5.91;84.14
71392;BME280;59205;50.610;12.638;2022-12-18T09:41:04;96971.34;;;-5.81;83.69
71392;BME280;59205;50.610;12.638;2022-12-18T09:43:40;96964.19;;;-5.80;83.52
71392;BME280;59205;50.610;12.638;2022-12-18T09:46:10;96959.41;;;-5.66;83.21
71392;BME280;59205;50.610;12.638;2022-12-18T09:48:43;96950.16;;;-5.52;83.05
71392;BME280;59205;50.610;12.638;2022-12-18T09:51:15;96950.22;;;-5.40;82.21
71392;BME280;59205;50.610;12.638;2022-12-18T09:53:45;96952.13;;;-5.28;81.61
71392;BME280;59205;50.610;12.638;2022-12-18T09:56:16;96940.84;;;-5.17;81.63
71392;BME280;59205;50.610;12.638;2022-12-18T09:58:49;96934.56;;;-5.12;81.36
71392;BME280;59205;50.610;12.638;2022-12-18T10:01:21;96935.72;;;-4.90;80.83
71392;BME280;59205;50.610;12.638;2022-12-18T10:03:47;96930.69;;;-4.83;79.86
71392;BME280;59205;50.610;12.638;2022-12-18T10:06:18;96921.88;;;-4.75;79.53
71392;BME280;59205;50.610;12.638;2022-12-18T10:11:48;96928.19;;;-4.43;77.03
71392;BME280;59205;50.610;12.638;2022-12-18T10:14:26;96921.28;;;-4.24;76.52
71392;BME280;59205;50.610;12.638;2022-12-18T10:17:02;96910.31;;;-3.98;75.92
71392;BME280;59205;50.610;12.638;2022-12-18T10:22:29;96911.28;;;-3.39;74.10
71392;BME280;59205;50.610;12.638;2022-12-18T10:27:30;96901.63;;;-3.32;72.82
71392;BME280;59205;50.610;12.638;2022-12-18T10:29:57;96900.69;;;-2.97;72.67
71392;BME280;59205;50.610;12.638;2022-12-18T10:32:25;96898.28;;;-1.18;65.88
71392;BME280;59205;50.610;12.638;2022-12-18T10:34:54;96913.25;;;1.60;56.34
71392;BME280;59205;50.610;12.638;2022-12-18T10:37:23;96916.19;;;4.00;50.63
71392;BME280;59205;50.610;12.638;2022-12-18T10:40:13;96915.22;;;4.94;46.75
71392;BME280;59205;50.610;12.638;2022-12-18T10:42:40;96924.13;;;5.52;44.26
71392;BME280;59205;50.610;12.638;2022-12-18T10:45:16;96926.22;;;6.76;41.85
71392;BME280;59205;50.610;12.638;2022-12-18T10:47:48;96932.06;;;5.01;45.01
71392;BME280;59205;50.610;12.638;2022-12-18T10:50:31;96924.88;;;4.78;45.84
71392;BME280;59205;50.610;12.638;2022-12-18T10:53:03;96919.47;;;4.88;44.26
71392;BME280;59205;50.610;12.638;2022-12-18T10:55:34;96922.78;;;5.20;45.65
71392;BME280;59205;50.610;12.638;2022-12-18T11:01:04;96907.75;;;1.43;54.11
71392;BME280;59205;50.610;12.638;2022-12-18T11:06:18;96896.25;;;2.43;50.78
71392;BME280;59205;50.610;12.638;2022-12-18T11:09:06;96886.59;;;1.67;52.21
71392;BME280;59205;50.610;12.638;2022-12-18T11:11:48;96889.31;;;1.74;52.75
71392;BME280;59205;50.610;12.638;2022-12-18T11:14:22;96891.53;;;2.19;50.59
71392;BME280;59205;50.610;12.638;2022-12-18T11:16:49;96882.59;;;2.58;50.17
71392;BME280;59205;50.610;12.638;2022-12-18T11:21:47;96876.59;;;2.89;48.09
71392;BME280;59205;50.610;12.638;2022-12-18T11:24:24;96884.94;;;2.70;48.99
71392;BME280;59205;50.610;12.638;2022-12-18T11:26:53;96894.38;;;3.88;46.89
71392;BME280;59205;50.610;12.638;2022-12-18T11:29:24;96885.94;;;2.34;49.80
71392;BME280;59205;50.610;12.638;2022-12-18T11:32:31;96890.28;;;2.63;49.90
71392;BME280;59205;50.610;12.638;2022-12-18T11:35:19;96903.75;;;2.91;48.76
71392;BME280;59205;50.610;12.638;2022-12-18T11:38:23;96901.97;;;4.49;46.43
71392;BME280;59205;50.610;12.638;2022-12-18T11:41:16;96908.91;;;5.93;42.91
71392;BME280;59205;50.610;12.638;2022-12-18T11:44:03;96904.50;;;5.59;42.26
71392;BME280;59205;50.610;12.638;2022-12-18T11:46:34;96905.78;;;4.48;43.87
71392;BME280;59205;50.610;12.638;2022-12-18T11:51:51;96924.31;;;6.73;39.72
71392;BME280;59205;50.610;12.638;2022-12-18T11:54:20;96941.19;;;9.83;33.48
71392;BME280;59205;50.610;12.638;2022-12-18T11:56:51;96945.66;;;8.56;35.08
71392;BME280;59205;50.610;12.638;2022-12-18T12:02:20;96925.25;;;10.04;32.47
71392;BME280;59205;50.610;12.638;2022-12-18T12:05:17;96932.72;;;8.22;35.53
71392;BME280;59205;50.610;12.638;2022-12-18T12:13:34;96938.78;;;10.04;32.27
71392;BME280;59205;50.610;12.638;2022-12-18T12:16:12;96937.97;;;9.52;31.99
71392;BME280;59205;50.610;12.638;2022-12-18T12:21:39;96940.09;;;8.21;34.43
71392;BME280;59205;50.610;12.638;2022-12-18T12:27:04;96924.69;;;9.03;33.61
71392;BME280;59205;50.610;12.638;2022-12-18T12:32:46;96908.19;;;7.33;36.75
71392;BME280;59205;50.610;12.638;2022-12-18T12:35:39;96897.69;;;7.42;36.07
71392;BME280;59205;50.610;12.638;2022-12-18T12:38:13;96899.97;;;6.07;38.57
71392;BME280;59205;50.610;12.638;2022-12-18T12:40:47;96893.66;;;6.61;37.75
71392;BME280;59205;50.610;12.638;2022-12-18T12:43:41;96890.16;;;5.25;39.65
71392;BME280;59205;50.610;12.638;2022-12-18T12:46:13;96891.22;;;4.45;41.60
71392;BME280;59205;50.610;12.638;2022-12-18T12:48:46;96890.53;;;3.64;42.82
71392;BME280;59205;50.610;12.638;2022-12-18T12:54:18;96890.09;;;3.31;43.73
71392;BME280;59205;50.610;12.638;2022-12-18T12:56:58;96877.59;;;2.53;45.29
71392;BME280;59205;50.610;12.638;2022-12-18T12:59:34;96876.41;;;2.44;46.04
71392;BME280;59205;50.610;12.638;2022-12-18T13:02:32;96880.78;;;2.08;46.65
71392;BME280;59205;50.610;12.638;2022-12-18T13:07:51;96879.72;;;1.66;47.22
71392;BME280;59205;50.610;12.638;2022-12-18T13:13:05;96862.84;;;1.15;48.96
71392;BME280;59205;50.610;12.638;2022-12-18T13:15:47;96859.16;;;0.87;49.79
71392;BME280;59205;50.610;12.638;2022-12-18T13:18:17;96877.72;;;0.80;49.13
71392;BME280;59205;50.610;12.638;2022-12-18T13:25:50;96863.34;;;0.55;51.13
71392;BME280;59205;50.610;12.638;2022-12-18T13:28:20;96862.34;;;0.66;49.41
71392;BME280;59205;50.610;12.638;2022-12-18T13:30:52;96853.47;;;0.92;49.58
71392;BME280;59205;50.610;12.638;2022-12-18T13:33:36;96857.84;;;1.10;48.70
71392;BME280;59205;50.610;12.638;2022-12-18T13:36:31;96852.22;;;0.82;48.59
71392;BME280;59205;50.610;12.638;2022-12-18T13:41:47;96856.81;;;0.19;50.67
71392;BME280;59205;50.610;12.638;2022-12-18T13:46:54;96862.66;;;-0.23;51.01
71392;BME280;59205;50.610;12.638;2022-12-18T13:49:21;96860.97;;;-0.35;51.28
71392;BME280;59205;50.610;12.638;2022-12-18T13:51:50;96858.88;;;-0.48;51.39
71392;BME280;59205;50.610;12.638;2022-12-18T13:54:27;96854.91;;;-0.58;51.41
71392;BME280;59205;50.610;12.638;2022-12-18T13:56:55;96853.66;;;-0.64;50.86
71392;BME280;59205;50.610;12.638;2022-12-18T13:59:41;96846.75;;;-0.68;51.88
71392;BME280;59205;50.610;12.638;2022-12-18T14:04:39;96850.28;;;-0.83;52.35
71392;BME280;59205;50.610;12.638;2022-12-18T14:07:13;96843.44;;;-0.84;52.99
71392;BME280;59205;50.610;12.638;2022-12-18T14:09:44;96832.22;;;-0.97;54.07
71392;BME280;59205;50.610;12.638;2022-12-18T14:12:31;96836.63;;;-1.04;54.62
71392;BME280;59205;50.610;12.638;2022-12-18T14:17:52;96833.38;;;-1.17;55.76
71392;BME280;59205;50.610;12.638;2022-12-18T14:20:18;96824.91;;;-1.22;56.55
71392;BME280;59205;50.610;12.638;2022-12-18T14:22:45;96836.66;;;-1.23;55.81
71392;BME280;59205;50.610;12.638;2022-12-18T14:27:41;96830.94;;;-1.25;55.56
71392;BME280;59205;50.610;12.638;2022-12-18T14:33:01;96833.97;;;-1.27;53.65
71392;BME280;59205;50.610;12.638;2022-12-18T14:35:27;96825.50;;;-1.32;54.05